JBU56T KJFK-KIAD
Flight info
| Callsign | JBU56T |
|---|---|
| Flight time | 1h 3m |
| Altitude | 16000 |
| Route | DIXIE T303 LEEAH T315 SHLBK/N0354F100 T315 TAPPA THHMP CAVLR6 |
| Aircraft | A320/M-SDE3FGHIRWY/LB1 |
Departure
| Time | 2026-04-30 21:10 |
|---|---|
| Airport | John F. Kennedy International Airport (KJFK) |
Arrival
| Time | 2026-04-30 22:14 |
|---|---|
| Airport | Washington Dulles International Airport (KIAD) |
| Time | Latitude | Longitude | Altitude | Speed | Heading |
|---|---|---|---|---|---|
| 2026-04-30 20:04 | 40.64674 | -73.77533 | 21 ft | 0 kts | 238° |
| 2026-04-30 20:46 | 40.64713 | -73.77490 | 21 ft | 1 kts | 181° |
| 2026-04-30 20:46 | 40.64714 | -73.77490 | 21 ft | 0 kts | 181° |
| 2026-04-30 20:58 | 40.64711 | -73.77485 | 20 ft | 0 kts | 138° |
| 2026-04-30 20:58 | 40.64710 | -73.77476 | 22 ft | 3 kts | 107° |
| 2026-04-30 20:59 | 40.64709 | -73.77471 | 21 ft | 1 kts | 105° |
| 2026-04-30 20:59 | 40.64699 | -73.77423 | 22 ft | 8 kts | 115° |
| 2026-04-30 21:00 | 40.64747 | -73.77375 | 20 ft | 8 kts | 7° |
| 2026-04-30 21:00 | 40.64870 | -73.77316 | 21 ft | 9 kts | 322° |
| 2026-04-30 21:01 | 40.64933 | -73.77448 | 20 ft | 7 kts | 301° |
| 2026-04-30 21:01 | 40.64953 | -73.77471 | 20 ft | 4 kts | 346° |
| 2026-04-30 21:01 | 40.64961 | -73.77470 | 20 ft | 1 kts | 3° |
| 2026-04-30 21:02 | 40.64984 | -73.77457 | 25 ft | 6 kts | 30° |
| 2026-04-30 21:02 | 40.65036 | -73.77427 | 20 ft | 10 kts | 18° |
| 2026-04-30 21:02 | 40.65106 | -73.77390 | 20 ft | 12 kts | 28° |
| 2026-04-30 21:02 | 40.65128 | -73.77315 | 20 ft | 10 kts | 112° |
| 2026-04-30 21:03 | 40.65089 | -73.77223 | 21 ft | 13 kts | 120° |
| 2026-04-30 21:03 | 40.65040 | -73.77114 | 21 ft | 15 kts | 121° |
| 2026-04-30 21:03 | 40.64983 | -73.76991 | 21 ft | 15 kts | 121° |
| 2026-04-30 21:03 | 40.64926 | -73.76865 | 21 ft | 14 kts | 120° |
| 2026-04-30 21:04 | 40.64879 | -73.76761 | 22 ft | 11 kts | 121° |
| 2026-04-30 21:04 | 40.64895 | -73.76687 | 21 ft | 11 kts | 33° |
| 2026-04-30 21:04 | 40.65046 | -73.76567 | 21 ft | 13 kts | 30° |
| 2026-04-30 21:05 | 40.65093 | -73.76526 | 21 ft | 4 kts | 49° |
| 2026-04-30 21:05 | 40.65101 | -73.76484 | 22 ft | 6 kts | 96° |
| 2026-04-30 21:05 | 40.65090 | -73.76449 | 23 ft | 0 kts | 118° |
| 2026-04-30 21:08 | 40.65084 | -73.76435 | 24 ft | 3 kts | 119° |
| 2026-04-30 21:09 | 40.65072 | -73.76408 | 24 ft | 4 kts | 122° |
| 2026-04-30 21:09 | 40.65046 | -73.76368 | 22 ft | 7 kts | 145° |
| 2026-04-30 21:09 | 40.64995 | -73.76377 | 23 ft | 0 kts | 209° |
| 2026-04-30 21:09 | 40.64937 | -73.76422 | 22 ft | 38 kts | 211° |
| 2026-04-30 21:10 | 40.64505 | -73.76761 | 20 ft | 103 kts | 210° |
| 2026-04-30 21:10 | 40.63734 | -73.77362 | 21 ft | 152 kts | 211° |
| 2026-04-30 21:10 | 40.62745 | -73.78138 | 362 ft | 169 kts | 210° |
| 2026-04-30 21:10 | 40.61727 | -73.78935 | 1099 ft | 170 kts | 212° |
| 2026-04-30 21:11 | 40.60687 | -73.79754 | 1505 ft | 187 kts | 213° |
| 2026-04-30 21:11 | 40.59498 | -73.80693 | 1819 ft | 210 kts | 212° |
| 2026-04-30 21:11 | 40.58166 | -73.81744 | 2146 ft | 236 kts | 213° |
| 2026-04-30 21:11 | 40.57183 | -73.82519 | 2462 ft | 251 kts | 213° |
| 2026-04-30 21:12 | 40.55147 | -73.84122 | 3577 ft | 261 kts | 213° |
| 2026-04-30 21:12 | 40.53586 | -73.85349 | 4504 ft | 264 kts | 213° |
| 2026-04-30 21:12 | 40.52003 | -73.86594 | 4873 ft | 265 kts | 213° |
| 2026-04-30 21:12 | 40.50950 | -73.87422 | 4972 ft | 265 kts | 213° |
| 2026-04-30 21:13 | 40.48842 | -73.89081 | 5024 ft | 264 kts | 213° |
| 2026-04-30 21:13 | 40.47775 | -73.89921 | 5024 ft | 264 kts | 213° |
| 2026-04-30 21:13 | 40.46206 | -73.91157 | 5023 ft | 264 kts | 214° |
| 2026-04-30 21:13 | 40.44829 | -73.92711 | 5229 ft | 262 kts | 237° |
| 2026-04-30 21:14 | 40.43900 | -73.94756 | 6231 ft | 261 kts | 242° |
| 2026-04-30 21:14 | 40.43001 | -73.96829 | 7193 ft | 261 kts | 242° |
| 2026-04-30 21:14 | 40.42102 | -73.98902 | 8130 ft | 262 kts | 242° |
| 2026-04-30 21:14 | 40.41197 | -74.01000 | 9030 ft | 265 kts | 242° |
| 2026-04-30 21:15 | 40.40281 | -74.03124 | 9864 ft | 269 kts | 242° |
| 2026-04-30 21:15 | 40.39346 | -74.05304 | 10361 ft | 285 kts | 242° |
| 2026-04-30 21:15 | 40.38339 | -74.07657 | 10596 ft | 308 kts | 242° |
| 2026-04-30 21:15 | 40.37248 | -74.10203 | 10750 ft | 331 kts | 242° |
| 2026-04-30 21:16 | 40.36095 | -74.12888 | 11140 ft | 343 kts | 242° |
| 2026-04-30 21:16 | 40.34911 | -74.15636 | 11791 ft | 347 kts | 242° |
| 2026-04-30 21:16 | 40.33719 | -74.18402 | 12501 ft | 349 kts | 242° |
| 2026-04-30 21:16 | 40.32524 | -74.21179 | 13226 ft | 352 kts | 242° |
| 2026-04-30 21:17 | 40.31312 | -74.23987 | 13914 ft | 354 kts | 242° |
| 2026-04-30 21:17 | 40.30113 | -74.26759 | 14563 ft | 355 kts | 242° |
| 2026-04-30 21:17 | 40.28889 | -74.29584 | 15234 ft | 356 kts | 242° |
| 2026-04-30 21:17 | 40.27661 | -74.32420 | 15807 ft | 358 kts | 242° |
| 2026-04-30 21:18 | 40.26438 | -74.35242 | 15976 ft | 355 kts | 242° |
| 2026-04-30 21:18 | 40.25192 | -74.38110 | 16027 ft | 370 kts | 242° |
| 2026-04-30 21:18 | 40.23898 | -74.41090 | 16028 ft | 383 kts | 242° |
| 2026-04-30 21:18 | 40.22579 | -74.44144 | 16023 ft | 386 kts | 243° |
| 2026-04-30 21:19 | 40.21565 | -74.47388 | 16018 ft | 386 kts | 253° |
| 2026-04-30 21:19 | 40.21063 | -74.50845 | 16018 ft | 387 kts | 264° |
| 2026-04-30 21:19 | 40.21090 | -74.54369 | 16021 ft | 389 kts | 274° |
| 2026-04-30 21:19 | 40.21585 | -74.57861 | 16023 ft | 391 kts | 279° |
| 2026-04-30 21:20 | 40.22151 | -74.61347 | 16024 ft | 391 kts | 279° |
| 2026-04-30 21:20 | 40.22711 | -74.64826 | 16021 ft | 391 kts | 279° |
| 2026-04-30 21:20 | 40.23266 | -74.68307 | 16025 ft | 391 kts | 279° |
| 2026-04-30 21:20 | 40.23811 | -74.71740 | 16024 ft | 391 kts | 279° |
| 2026-04-30 21:21 | 40.24370 | -74.75270 | 16023 ft | 390 kts | 279° |
| 2026-04-30 21:21 | 40.24915 | -74.78706 | 16019 ft | 390 kts | 279° |
| 2026-04-30 21:21 | 40.26010 | -74.85659 | 16014 ft | 390 kts | 279° |
| 2026-04-30 21:22 | 40.26555 | -74.89135 | 16013 ft | 390 kts | 279° |
| 2026-04-30 21:22 | 40.28238 | -74.99560 | 16006 ft | 390 kts | 279° |
| 2026-04-30 21:23 | 40.28815 | -75.03027 | 16016 ft | 390 kts | 279° |
| 2026-04-30 21:23 | 40.29394 | -75.06511 | 16031 ft | 390 kts | 279° |
| 2026-04-30 21:23 | 40.30529 | -75.13450 | 16026 ft | 390 kts | 279° |
| 2026-04-30 21:24 | 40.31093 | -75.16939 | 16028 ft | 390 kts | 279° |
| 2026-04-30 21:24 | 40.31654 | -75.20402 | 16027 ft | 390 kts | 279° |
| 2026-04-30 21:24 | 40.32216 | -75.23878 | 16042 ft | 389 kts | 279° |
| 2026-04-30 21:24 | 40.32777 | -75.27351 | 16042 ft | 389 kts | 279° |
| 2026-04-30 21:25 | 40.33901 | -75.34307 | 16042 ft | 390 kts | 279° |
| 2026-04-30 21:25 | 40.34450 | -75.37732 | 16039 ft | 390 kts | 279° |
| 2026-04-30 21:25 | 40.35003 | -75.41217 | 16032 ft | 390 kts | 279° |
| 2026-04-30 21:26 | 40.36106 | -75.48172 | 16039 ft | 390 kts | 279° |
| 2026-04-30 21:26 | 40.36661 | -75.51659 | 16039 ft | 390 kts | 279° |
| 2026-04-30 21:27 | 40.37528 | -75.58658 | 16030 ft | 388 kts | 269° |
| 2026-04-30 21:27 | 40.37311 | -75.62177 | 16029 ft | 386 kts | 259° |
| 2026-04-30 21:27 | 40.36588 | -75.65560 | 16027 ft | 386 kts | 249° |
| 2026-04-30 21:28 | 40.34223 | -75.71886 | 16031 ft | 387 kts | 244° |
| 2026-04-30 21:28 | 40.33006 | -75.75040 | 16028 ft | 387 kts | 244° |
| 2026-04-30 21:28 | 40.30585 | -75.81346 | 16036 ft | 387 kts | 244° |
| 2026-04-30 21:29 | 40.29370 | -75.84494 | 16035 ft | 387 kts | 244° |
| 2026-04-30 21:29 | 40.25717 | -75.93934 | 16005 ft | 387 kts | 244° |
| 2026-04-30 21:30 | 40.23284 | -76.00210 | 16014 ft | 387 kts | 244° |
| 2026-04-30 21:31 | 40.19625 | -76.09636 | 16043 ft | 386 kts | 244° |
| 2026-04-30 21:31 | 40.17201 | -76.15849 | 16052 ft | 386 kts | 244° |
| 2026-04-30 21:32 | 40.14751 | -76.22108 | 16049 ft | 387 kts | 244° |
| 2026-04-30 21:32 | 40.13522 | -76.25229 | 16046 ft | 387 kts | 244° |
| 2026-04-30 21:32 | 40.12288 | -76.28361 | 16046 ft | 387 kts | 244° |
| 2026-04-30 21:32 | 40.11014 | -76.31452 | 16042 ft | 387 kts | 242° |
| 2026-04-30 21:33 | 40.09657 | -76.34483 | 16028 ft | 387 kts | 240° |
| 2026-04-30 21:33 | 40.06837 | -76.40458 | 16029 ft | 386 kts | 240° |
| 2026-04-30 21:33 | 40.05423 | -76.43439 | 16035 ft | 386 kts | 240° |
| 2026-04-30 21:34 | 40.04020 | -76.46412 | 16039 ft | 386 kts | 240° |
| 2026-04-30 21:34 | 40.01233 | -76.52396 | 16063 ft | 385 kts | 241° |
| 2026-04-30 21:34 | 39.99845 | -76.55397 | 16055 ft | 385 kts | 241° |
| 2026-04-30 21:35 | 39.98460 | -76.58390 | 16057 ft | 386 kts | 240° |
| 2026-04-30 21:35 | 39.97072 | -76.61383 | 16059 ft | 386 kts | 240° |
| 2026-04-30 21:35 | 39.95679 | -76.64383 | 16058 ft | 386 kts | 240° |
| 2026-04-30 21:35 | 39.94286 | -76.67373 | 16060 ft | 386 kts | 240° |
| 2026-04-30 21:36 | 39.92892 | -76.70362 | 16037 ft | 386 kts | 240° |
| 2026-04-30 21:36 | 39.91515 | -76.73316 | 15896 ft | 386 kts | 240° |
| 2026-04-30 21:37 | 39.87329 | -76.82276 | 14889 ft | 383 kts | 240° |
| 2026-04-30 21:37 | 39.85962 | -76.85198 | 14641 ft | 383 kts | 240° |
| 2026-04-30 21:37 | 39.84570 | -76.88164 | 14386 ft | 383 kts | 240° |
| 2026-04-30 21:37 | 39.83184 | -76.91120 | 14097 ft | 382 kts | 240° |
| 2026-04-30 21:38 | 39.81797 | -76.94074 | 13790 ft | 382 kts | 240° |
| 2026-04-30 21:38 | 39.80425 | -76.96994 | 13458 ft | 374 kts | 240° |
| 2026-04-30 21:38 | 39.79089 | -76.99834 | 13106 ft | 361 kts | 240° |
| 2026-04-30 21:38 | 39.77806 | -77.02561 | 12803 ft | 347 kts | 240° |
| 2026-04-30 21:39 | 39.76587 | -77.05145 | 12656 ft | 320 kts | 240° |
| 2026-04-30 21:39 | 39.75474 | -77.07501 | 12520 ft | 293 kts | 240° |
| 2026-04-30 21:39 | 39.74439 | -77.09695 | 12109 ft | 279 kts | 240° |
| 2026-04-30 21:39 | 39.73429 | -77.11838 | 11478 ft | 275 kts | 240° |
| 2026-04-30 21:40 | 39.72435 | -77.13943 | 10823 ft | 273 kts | 240° |
| 2026-04-30 21:40 | 39.71450 | -77.16027 | 10333 ft | 266 kts | 240° |
| 2026-04-30 21:40 | 39.70486 | -77.18067 | 10255 ft | 267 kts | 240° |
| 2026-04-30 21:40 | 39.69509 | -77.20129 | 10141 ft | 269 kts | 239° |
| 2026-04-30 21:41 | 39.68297 | -77.21986 | 10023 ft | 272 kts | 224° |
| 2026-04-30 21:41 | 39.66714 | -77.23354 | 9836 ft | 276 kts | 208° |
| 2026-04-30 21:41 | 39.64937 | -77.24270 | 9637 ft | 278 kts | 205° |
| 2026-04-30 21:41 | 39.63134 | -77.25172 | 9434 ft | 277 kts | 206° |
| 2026-04-30 21:42 | 39.61345 | -77.26076 | 9241 ft | 276 kts | 206° |
| 2026-04-30 21:42 | 39.59559 | -77.26981 | 9050 ft | 275 kts | 206° |
| 2026-04-30 21:42 | 39.57776 | -77.27886 | 8861 ft | 275 kts | 207° |
| 2026-04-30 21:42 | 39.55999 | -77.28785 | 8666 ft | 274 kts | 206° |
| 2026-04-30 21:43 | 39.54221 | -77.29686 | 8471 ft | 275 kts | 206° |
| 2026-04-30 21:43 | 39.52437 | -77.30590 | 8282 ft | 275 kts | 206° |
| 2026-04-30 21:43 | 39.50657 | -77.31495 | 8090 ft | 274 kts | 206° |
| 2026-04-30 21:43 | 39.48890 | -77.32394 | 7899 ft | 273 kts | 206° |
| 2026-04-30 21:44 | 39.47118 | -77.33293 | 7703 ft | 273 kts | 206° |
| 2026-04-30 21:44 | 39.45342 | -77.34191 | 7511 ft | 273 kts | 206° |
| 2026-04-30 21:44 | 39.43576 | -77.35083 | 7304 ft | 272 kts | 206° |
| 2026-04-30 21:44 | 39.41802 | -77.35945 | 7121 ft | 274 kts | 201° |
| 2026-04-30 21:45 | 39.39901 | -77.36343 | 6890 ft | 281 kts | 186° |
| 2026-04-30 21:45 | 39.37944 | -77.36303 | 6613 ft | 281 kts | 184° |
| 2026-04-30 21:45 | 39.35987 | -77.36247 | 6327 ft | 280 kts | 183° |
| 2026-04-30 21:45 | 39.34042 | -77.36190 | 6044 ft | 279 kts | 183° |
| 2026-04-30 21:46 | 39.32102 | -77.36135 | 5772 ft | 279 kts | 183° |
| 2026-04-30 21:46 | 39.30191 | -77.36090 | 5504 ft | 277 kts | 183° |
| 2026-04-30 21:46 | 39.28288 | -77.36046 | 5378 ft | 269 kts | 183° |
| 2026-04-30 21:46 | 39.26450 | -77.36001 | 5233 ft | 261 kts | 184° |
| 2026-04-30 21:47 | 39.24640 | -77.35957 | 4979 ft | 259 kts | 183° |
| 2026-04-30 21:47 | 39.22842 | -77.35917 | 4687 ft | 258 kts | 183° |
| 2026-04-30 21:47 | 39.21047 | -77.35877 | 4475 ft | 258 kts | 184° |
| 2026-04-30 21:47 | 39.19255 | -77.35836 | 4296 ft | 257 kts | 184° |
| 2026-04-30 21:48 | 39.17479 | -77.35796 | 4126 ft | 255 kts | 183° |
| 2026-04-30 21:48 | 39.15699 | -77.35758 | 4019 ft | 256 kts | 184° |
| 2026-04-30 21:48 | 39.13914 | -77.35713 | 4025 ft | 256 kts | 183° |
| 2026-04-30 21:48 | 39.12144 | -77.35674 | 4021 ft | 251 kts | 183° |
| 2026-04-30 21:49 | 39.10419 | -77.35629 | 4049 ft | 247 kts | 183° |
| 2026-04-30 21:49 | 39.08706 | -77.35589 | 4052 ft | 245 kts | 183° |
| 2026-04-30 21:49 | 39.07005 | -77.35549 | 4013 ft | 245 kts | 183° |
| 2026-04-30 21:49 | 39.05294 | -77.35518 | 4012 ft | 245 kts | 184° |
| 2026-04-30 21:50 | 39.03580 | -77.35484 | 4017 ft | 246 kts | 183° |
| 2026-04-30 21:50 | 39.01870 | -77.35451 | 4018 ft | 246 kts | 183° |
| 2026-04-30 21:50 | 39.00160 | -77.35421 | 4018 ft | 246 kts | 183° |
| 2026-04-30 21:50 | 38.98450 | -77.35395 | 4016 ft | 246 kts | 183° |
| 2026-04-30 21:51 | 38.96759 | -77.35369 | 4017 ft | 247 kts | 183° |
| 2026-04-30 21:51 | 38.95041 | -77.35347 | 4018 ft | 247 kts | 183° |
| 2026-04-30 21:51 | 38.93322 | -77.35309 | 4018 ft | 247 kts | 182° |
| 2026-04-30 21:51 | 38.91596 | -77.35251 | 4014 ft | 246 kts | 182° |
| 2026-04-30 21:52 | 38.89880 | -77.35246 | 4015 ft | 247 kts | 185° |
| 2026-04-30 21:52 | 38.88168 | -77.35355 | 4008 ft | 244 kts | 188° |
| 2026-04-30 21:52 | 38.86473 | -77.35504 | 4013 ft | 243 kts | 188° |
| 2026-04-30 21:52 | 38.84807 | -77.35655 | 4013 ft | 243 kts | 188° |
| 2026-04-30 21:53 | 38.83121 | -77.35808 | 4012 ft | 244 kts | 188° |
| 2026-04-30 21:53 | 38.81446 | -77.35951 | 4008 ft | 235 kts | 188° |
| 2026-04-30 21:53 | 38.79828 | -77.36085 | 4012 ft | 232 kts | 188° |
| 2026-04-30 21:53 | 38.78223 | -77.36221 | 4013 ft | 232 kts | 188° |
| 2026-04-30 21:54 | 38.76600 | -77.36363 | 4009 ft | 233 kts | 188° |
| 2026-04-30 21:54 | 38.74994 | -77.36502 | 4014 ft | 233 kts | 188° |
| 2026-04-30 21:54 | 38.73376 | -77.36644 | 4015 ft | 233 kts | 188° |
| 2026-04-30 21:54 | 38.71764 | -77.36856 | 4010 ft | 231 kts | 200° |
| 2026-04-30 21:55 | 38.70448 | -77.37850 | 4014 ft | 216 kts | 234° |
| 2026-04-30 21:55 | 38.69787 | -77.39518 | 4019 ft | 208 kts | 264° |
| 2026-04-30 21:55 | 38.69878 | -77.41307 | 4018 ft | 202 kts | 292° |
| 2026-04-30 21:55 | 38.70643 | -77.42782 | 4017 ft | 201 kts | 319° |
| 2026-04-30 21:56 | 38.71891 | -77.43593 | 4018 ft | 206 kts | 343° |
| 2026-04-30 21:56 | 38.72826 | -77.43840 | 4017 ft | 208 kts | 348° |
| 2026-04-30 21:56 | 38.74287 | -77.43924 | 3946 ft | 212 kts | 357° |
| 2026-04-30 21:56 | 38.75734 | -77.43892 | 3821 ft | 203 kts | 356° |
| 2026-04-30 21:57 | 38.77582 | -77.43857 | 3644 ft | 193 kts | 356° |
| 2026-04-30 21:57 | 38.78456 | -77.43842 | 3553 ft | 186 kts | 356° |
| 2026-04-30 21:57 | 38.79723 | -77.43821 | 3438 ft | 179 kts | 355° |
| 2026-04-30 21:57 | 38.80970 | -77.43804 | 3278 ft | 178 kts | 356° |
| 2026-04-30 21:58 | 38.82208 | -77.43787 | 2874 ft | 177 kts | 355° |
| 2026-04-30 21:58 | 38.83422 | -77.43768 | 2491 ft | 171 kts | 354° |
| 2026-04-30 21:58 | 38.84585 | -77.43750 | 2104 ft | 165 kts | 355° |
| 2026-04-30 21:58 | 38.85718 | -77.43737 | 1738 ft | 158 kts | 354° |
| 2026-04-30 21:59 | 38.86764 | -77.43722 | 1479 ft | 143 kts | 354° |
| 2026-04-30 21:59 | 38.87719 | -77.43709 | 1293 ft | 134 kts | 354° |
| 2026-04-30 21:59 | 38.88642 | -77.43697 | 1105 ft | 131 kts | 355° |
| 2026-04-30 22:00 | 38.90473 | -77.43667 | 731 ft | 129 kts | 355° |
| 2026-04-30 22:00 | 38.92295 | -77.43640 | 384 ft | 134 kts | 356° |
| 2026-04-30 22:00 | 38.93180 | -77.43617 | 307 ft | 119 kts | 355° |
| 2026-04-30 22:01 | 38.94050 | -77.43590 | 854 ft | 130 kts | 356° |
| 2026-04-30 22:01 | 38.95001 | -77.43560 | 1468 ft | 153 kts | 354° |
| 2026-04-30 22:01 | 38.96151 | -77.43541 | 1859 ft | 173 kts | 355° |
| 2026-04-30 22:01 | 38.97416 | -77.43530 | 2250 ft | 189 kts | 354° |
| 2026-04-30 22:02 | 38.98758 | -77.43384 | 2634 ft | 198 kts | 8° |
| 2026-04-30 22:02 | 39.00033 | -77.42611 | 2972 ft | 212 kts | 34° |
| 2026-04-30 22:02 | 39.00943 | -77.41085 | 3037 ft | 219 kts | 56° |
| 2026-04-30 22:02 | 39.01599 | -77.39312 | 3037 ft | 222 kts | 62° |
| 2026-04-30 22:03 | 39.01969 | -77.37364 | 3058 ft | 229 kts | 84° |
| 2026-04-30 22:03 | 39.01693 | -77.35337 | 2948 ft | 233 kts | 111° |
| 2026-04-30 22:03 | 39.00777 | -77.33642 | 2902 ft | 232 kts | 138° |
| 2026-04-30 22:03 | 38.99452 | -77.32538 | 3034 ft | 229 kts | 166° |
| 2026-04-30 22:04 | 38.97889 | -77.32487 | 2998 ft | 220 kts | 201° |
| 2026-04-30 22:04 | 38.96551 | -77.33356 | 2720 ft | 213 kts | 224° |
| 2026-04-30 22:04 | 38.93869 | -77.34932 | 3172 ft | 223 kts | 195° |
| 2026-04-30 22:05 | 38.92326 | -77.35198 | 3253 ft | 228 kts | 192° |
| 2026-04-30 22:05 | 38.90729 | -77.35531 | 2710 ft | 237 kts | 195° |
| 2026-04-30 22:05 | 38.89130 | -77.35903 | 2786 ft | 231 kts | 194° |
| 2026-04-30 22:05 | 38.87612 | -77.36222 | 2889 ft | 212 kts | 194° |
| 2026-04-30 22:06 | 38.86182 | -77.36470 | 2986 ft | 203 kts | 192° |
| 2026-04-30 22:06 | 38.83409 | -77.36809 | 3251 ft | 203 kts | 191° |
| 2026-04-30 22:06 | 38.82014 | -77.36952 | 3010 ft | 198 kts | 191° |
| 2026-04-30 22:07 | 38.80649 | -77.37091 | 2893 ft | 198 kts | 188° |
| 2026-04-30 22:07 | 38.79268 | -77.36982 | 2903 ft | 198 kts | 178° |
| 2026-04-30 22:07 | 38.77888 | -77.36780 | 2919 ft | 201 kts | 179° |
| 2026-04-30 22:07 | 38.76508 | -77.36737 | 2999 ft | 195 kts | 196° |
| 2026-04-30 22:08 | 38.75350 | -77.37443 | 3169 ft | 179 kts | 231° |
| 2026-04-30 22:08 | 38.74822 | -77.38781 | 3283 ft | 167 kts | 264° |
| 2026-04-30 22:08 | 38.74702 | -77.40299 | 2965 ft | 170 kts | 277° |
| 2026-04-30 22:08 | 38.75169 | -77.41583 | 2849 ft | 162 kts | 317° |
| 2026-04-30 22:09 | 38.76107 | -77.42363 | 2797 ft | 159 kts | 326° |
| 2026-04-30 22:09 | 38.77044 | -77.43073 | 2927 ft | 150 kts | 326° |
| 2026-04-30 22:09 | 38.77999 | -77.43547 | 2649 ft | 156 kts | 355° |
| 2026-04-30 22:09 | 38.79098 | -77.43315 | 2261 ft | 161 kts | 359° |
| 2026-04-30 22:10 | 38.80154 | -77.43320 | 2151 ft | 145 kts | 354° |
| 2026-04-30 22:10 | 38.81113 | -77.43365 | 2078 ft | 126 kts | 347° |
| 2026-04-30 22:10 | 38.81924 | -77.43488 | 1899 ft | 114 kts | 344° |
| 2026-04-30 22:10 | 38.82779 | -77.43623 | 1773 ft | 138 kts | 347° |
| 2026-04-30 22:11 | 38.84603 | -77.43703 | 1764 ft | 131 kts | 352° |
| 2026-04-30 22:11 | 38.85518 | -77.43688 | 1636 ft | 131 kts | 352° |
| 2026-04-30 22:11 | 38.86422 | -77.43680 | 1503 ft | 128 kts | 354° |
| 2026-04-30 22:12 | 38.87302 | -77.43694 | 1384 ft | 125 kts | 354° |
| 2026-04-30 22:12 | 38.88169 | -77.43682 | 1211 ft | 125 kts | 355° |
| 2026-04-30 22:12 | 38.89035 | -77.43660 | 999 ft | 127 kts | 354° |
| 2026-04-30 22:12 | 38.89936 | -77.43656 | 839 ft | 133 kts | 355° |
| 2026-04-30 22:13 | 38.90869 | -77.43661 | 675 ft | 131 kts | 354° |
| 2026-04-30 22:13 | 38.91755 | -77.43639 | 488 ft | 124 kts | 355° |
| 2026-04-30 22:13 | 38.92600 | -77.43625 | 325 ft | 119 kts | 352° |
| 2026-04-30 22:13 | 38.93239 | -77.43635 | 298 ft | 56 kts | 1° |
| 2026-04-30 22:14 | 38.93583 | -77.43627 | 297 ft | 45 kts | 0° |
| 2026-04-30 22:14 | 38.93860 | -77.43640 | 297 ft | 34 kts | 346° |
| 2026-04-30 22:14 | 38.94021 | -77.43721 | 297 ft | 18 kts | 333° |
| 2026-04-30 22:14 | 38.94079 | -77.43761 | 299 ft | 0 kts | 331° |
| 2026-04-30 22:15 | 38.94088 | -77.43767 | 302 ft | 4 kts | 331° |
| 2026-04-30 22:15 | 38.94137 | -77.43802 | 302 ft | 11 kts | 331° |
| 2026-04-30 22:15 | 38.94210 | -77.43840 | 301 ft | 12 kts | 344° |
| 2026-04-30 22:15 | 38.94306 | -77.43861 | 297 ft | 16 kts | 357° |
| 2026-04-30 22:16 | 38.94399 | -77.43885 | 300 ft | 12 kts | 308° |
| 2026-04-30 22:16 | 38.94406 | -77.43992 | 299 ft | 12 kts | 270° |